createdAt,value
2023-03-07T00:01:10.463Z,17
2023-03-07T00:02:24.647Z,16
2023-03-07T00:04:52.882Z,17
2023-03-07T00:06:07.111Z,16
2023-03-07T00:07:21.118Z,17
2023-03-07T00:09:49.552Z,17
2023-03-07T00:11:03.545Z,16
2023-03-07T00:12:17.800Z,16
2023-03-07T00:14:46.070Z,16
2023-03-07T00:16:00.176Z,16
2023-03-07T00:17:14.199Z,16
2023-03-07T00:19:42.472Z,16
2023-03-07T00:20:56.607Z,16
2023-03-07T00:22:11.816Z,16
2023-03-07T00:24:39.009Z,16
2023-03-07T00:25:53.177Z,17
2023-03-07T00:27:07.337Z,16
2023-03-07T00:28:21.459Z,16
2023-03-07T00:30:49.774Z,16
2023-03-07T00:32:03.840Z,16
2023-03-07T00:33:18.029Z,16
2023-03-07T00:35:46.243Z,16
2023-03-07T00:37:00.339Z,16
2023-03-07T00:38:14.484Z,15
2023-03-07T00:40:42.740Z,17
2023-03-07T00:41:57.268Z,16
2023-03-07T00:43:10.987Z,16
2023-03-07T00:44:25.165Z,15
2023-03-07T00:46:53.393Z,15
2023-03-07T00:48:07.583Z,15
2023-03-07T00:49:21.714Z,14
2023-03-07T00:51:49.998Z,13
2023-03-07T00:53:04.064Z,14
2023-03-07T00:54:18.269Z,14
2023-03-07T00:56:46.546Z,14
2023-03-07T00:58:00.657Z,13
2023-03-07T00:59:15.177Z,13
2023-03-07T01:01:42.990Z,12
2023-03-07T01:02:57.379Z,12
2023-03-07T01:04:11.385Z,12
2023-03-07T01:06:39.507Z,12
2023-03-07T01:07:53.669Z,11
2023-03-07T01:09:07.820Z,12
2023-03-07T01:10:21.926Z,11
2023-03-07T01:12:50.235Z,11
2023-03-07T01:14:04.404Z,11
2023-03-07T01:15:18.509Z,10
2023-03-07T01:17:46.737Z,10
2023-03-07T01:19:00.852Z,10
2023-03-07T01:20:15.012Z,9
2023-03-07T01:22:43.278Z,9
2023-03-07T01:23:57.374Z,8
2023-03-07T01:25:11.504Z,8
2023-03-07T01:27:39.772Z,8
2023-03-07T01:28:53.941Z,8
2023-03-07T01:30:08.186Z,7
2023-03-07T01:31:22.211Z,7
2023-03-07T01:33:50.418Z,7
2023-03-07T01:35:04.589Z,7
2023-03-07T01:36:18.890Z,6
2023-03-07T01:38:47.051Z,6
2023-03-07T01:40:01.145Z,6
2023-03-07T01:41:15.304Z,6
2023-03-07T01:43:43.533Z,7
2023-03-07T01:44:57.715Z,6
2023-03-07T01:46:11.875Z,6
2023-03-07T01:47:25.891Z,6
2023-03-07T01:48:40.053Z,6
2023-03-07T01:49:54.330Z,6
2023-03-07T01:51:08.390Z,6
2023-03-07T01:52:22.527Z,6
2023-03-07T01:54:50.684Z,5
2023-03-07T01:56:04.963Z,6
2023-03-07T01:57:18.968Z,6
2023-03-07T01:59:47.246Z,6
2023-03-07T02:01:01.381Z,5
2023-03-07T02:02:15.534Z,5
2023-03-07T02:04:43.793Z,5
2023-03-07T02:05:57.934Z,5
2023-03-07T02:07:12.031Z,5
2023-03-07T02:09:40.267Z,5
2023-03-07T02:10:54.504Z,5
2023-03-07T02:12:08.665Z,5
2023-03-07T02:13:22.731Z,4
2023-03-07T02:15:50.972Z,5
2023-03-07T02:17:05.227Z,5
2023-03-07T02:18:19.270Z,5
2023-03-07T02:20:47.594Z,5
2023-03-07T02:22:01.613Z,5
2023-03-07T02:23:15.768Z,5
2023-03-07T02:25:44.101Z,5
2023-03-07T02:26:58.170Z,5
2023-03-07T02:28:12.280Z,5
2023-03-07T02:30:40.541Z,5
2023-03-07T02:31:54.682Z,5
2023-03-07T02:33:08.841Z,5
2023-03-07T02:34:22.990Z,5
2023-03-07T02:36:51.195Z,5
2023-03-07T02:38:05.420Z,5
2023-03-07T02:39:19.497Z,5
2023-03-07T02:41:47.828Z,5
2023-03-07T02:43:01.902Z,5
2023-03-07T02:44:16.039Z,4
2023-03-07T02:46:44.281Z,5
2023-03-07T02:47:58.532Z,5
2023-03-07T02:49:12.565Z,4
2023-03-07T02:51:40.805Z,5
2023-03-07T02:52:54.978Z,5
2023-03-07T02:54:09.076Z,5
2023-03-07T02:55:23.257Z,5
2023-03-07T02:57:51.465Z,5
2023-03-07T02:59:05.663Z,4
2023-03-07T03:00:19.789Z,5
2023-03-07T03:02:48.065Z,5
2023-03-07T03:04:02.146Z,5
2023-03-07T03:05:16.300Z,5
2023-03-07T03:07:44.538Z,5
2023-03-07T03:08:58.793Z,5
2023-03-07T03:10:12.833Z,5
2023-03-07T03:11:26.967Z,5
2023-03-07T03:12:41.063Z,5
2023-03-07T03:13:55.296Z,5
2023-03-07T03:15:09.449Z,5
2023-03-07T03:16:23.548Z,5
2023-03-07T03:18:59.966Z,6
2023-03-07T03:20:14.075Z,6
2023-03-07T03:22:42.446Z,5
2023-03-07T03:23:56.481Z,7
2023-03-07T03:25:10.634Z,6
2023-03-07T03:27:38.876Z,6
2023-03-07T03:28:53.015Z,6
2023-03-07T03:30:07.202Z,6
2023-03-07T03:31:21.274Z,6
2023-03-07T03:33:49.628Z,6
2023-03-07T03:35:03.665Z,6
2023-03-07T03:36:17.790Z,6
2023-03-07T03:38:46.243Z,6
2023-03-07T03:40:00.271Z,6
2023-03-07T03:41:14.323Z,6
2023-03-07T03:43:42.597Z,5
2023-03-07T03:44:56.732Z,6
2023-03-07T03:46:10.832Z,6
2023-03-07T03:47:24.986Z,6
2023-03-07T03:49:53.249Z,6
2023-03-07T03:51:07.427Z,9
2023-03-07T03:52:21.580Z,11
2023-03-07T03:54:49.883Z,7
2023-03-07T03:56:03.921Z,7
2023-03-07T03:57:18.470Z,7
2023-03-07T03:59:46.397Z,7
2023-03-07T04:01:00.429Z,7
2023-03-07T04:02:14.712Z,7
2023-03-07T04:04:42.844Z,8
2023-03-07T04:05:56.988Z,8
2023-03-07T04:07:11.114Z,7
2023-03-07T04:09:39.391Z,7
2023-03-07T04:10:53.557Z,7
2023-03-07T04:12:07.656Z,7
2023-03-07T04:13:21.793Z,7
2023-03-07T04:15:50.066Z,7
2023-03-07T04:17:04.173Z,7
2023-03-07T04:18:18.326Z,7
2023-03-07T04:20:46.564Z,7
2023-03-07T04:22:00.692Z,7
2023-03-07T04:23:14.904Z,7
2023-03-07T04:25:43.142Z,8
2023-03-07T04:26:57.255Z,8
2023-03-07T04:28:11.368Z,8
2023-03-07T04:30:39.721Z,8
2023-03-07T04:31:53.827Z,7
2023-03-07T04:33:07.920Z,7
2023-03-07T04:34:22.041Z,8
2023-03-07T04:36:50.382Z,8
2023-03-07T04:38:04.482Z,8
2023-03-07T04:39:23.651Z,8
2023-03-07T04:40:32.734Z,8
2023-03-07T04:41:46.828Z,8
2023-03-07T04:43:00.977Z,8
2023-03-07T04:44:15.145Z,8
2023-03-07T04:46:43.364Z,8
2023-03-07T04:47:57.516Z,8
2023-03-07T04:49:11.609Z,9
2023-03-07T04:51:39.994Z,9
2023-03-07T04:52:54.026Z,9
2023-03-07T04:54:08.167Z,8
2023-03-07T04:55:22.281Z,9
2023-03-07T04:57:50.547Z,8
2023-03-07T04:59:04.972Z,9
2023-03-07T05:00:18.825Z,9
2023-03-07T05:02:47.090Z,9
2023-03-07T05:04:01.265Z,9
2023-03-07T05:05:15.396Z,9
2023-03-07T05:07:43.630Z,10
2023-03-07T05:08:57.762Z,9
2023-03-07T05:10:11.923Z,9
2023-03-07T05:12:40.150Z,9
2023-03-07T05:13:54.298Z,9
2023-03-07T05:15:08.494Z,9
2023-03-07T05:16:22.567Z,10
2023-03-07T05:18:50.892Z,9
2023-03-07T05:20:05.035Z,9
2023-03-07T05:21:19.092Z,9
2023-03-07T05:23:47.374Z,9
2023-03-07T05:25:01.482Z,9
2023-03-07T05:26:15.639Z,9
2023-03-07T05:28:43.895Z,10
2023-03-07T05:29:58.124Z,9
2023-03-07T05:31:12.215Z,10
2023-03-07T05:33:40.461Z,9
2023-03-07T05:34:54.551Z,9
2023-03-07T05:36:08.708Z,10
2023-03-07T05:37:22.818Z,10
2023-03-07T05:39:51.064Z,10
2023-03-07T05:41:05.216Z,9
2023-03-07T05:42:19.348Z,10
2023-03-07T05:44:47.662Z,9
2023-03-07T05:46:01.764Z,10
2023-03-07T05:47:15.916Z,10
2023-03-07T05:49:44.141Z,11
2023-03-07T05:50:58.373Z,11
2023-03-07T05:52:12.395Z,10
2023-03-07T05:54:40.659Z,11
2023-03-07T05:55:54.816Z,10
2023-03-07T05:57:08.958Z,11
2023-03-07T05:58:23.074Z,11
2023-03-07T06:00:51.315Z,11
2023-03-07T06:02:05.505Z,11
2023-03-07T06:03:19.630Z,10
2023-03-07T06:05:47.909Z,12
2023-03-07T06:07:02.011Z,11
2023-03-07T06:08:16.196Z,11
2023-03-07T06:10:44.422Z,13
2023-03-07T06:11:58.615Z,12
2023-03-07T06:13:12.657Z,12
2023-03-07T06:15:40.952Z,11
2023-03-07T06:16:55.190Z,12
2023-03-07T06:18:09.313Z,11
2023-03-07T06:19:23.340Z,12
2023-03-07T06:21:51.573Z,12
2023-03-07T06:23:05.733Z,12
2023-03-07T06:24:19.858Z,12
2023-03-07T06:26:48.138Z,12
2023-03-07T06:28:02.320Z,11
2023-03-07T06:29:16.389Z,12
2023-03-07T06:31:44.729Z,11
2023-03-07T06:32:58.849Z,11
2023-03-07T06:34:12.916Z,11
2023-03-07T06:36:41.162Z,11
2023-03-07T06:37:55.400Z,12
2023-03-07T06:39:09.536Z,11
2023-03-07T06:40:23.897Z,11
2023-03-07T06:42:51.868Z,11
2023-03-07T06:44:06.077Z,11
2023-03-07T06:45:20.128Z,11
2023-03-07T06:47:48.389Z,10
2023-03-07T06:49:02.535Z,11
2023-03-07T06:50:19.330Z,10
2023-03-07T06:52:44.945Z,10
2023-03-07T06:53:59.102Z,10
2023-03-07T06:55:13.186Z,10
2023-03-07T06:57:41.441Z,10
2023-03-07T06:58:55.648Z,9
2023-03-07T07:00:09.770Z,10
2023-03-07T07:01:23.851Z,9
2023-03-07T07:03:52.111Z,10
2023-03-07T07:05:06.232Z,10
2023-03-07T07:06:20.356Z,10
2023-03-07T07:08:48.732Z,10
2023-03-07T07:10:02.787Z,10
2023-03-07T07:11:16.908Z,9
2023-03-07T07:13:45.164Z,9
2023-03-07T07:14:59.402Z,9
2023-03-07T07:16:13.474Z,10
2023-03-07T07:18:41.718Z,9
2023-03-07T07:19:55.875Z,9
2023-03-07T07:21:10.005Z,9
2023-03-07T07:22:24.116Z,10
2023-03-07T07:24:52.832Z,9
2023-03-07T07:26:06.569Z,9
2023-03-07T07:27:20.619Z,8
2023-03-07T07:29:48.972Z,8
2023-03-07T07:31:03.039Z,9
2023-03-07T07:32:17.471Z,9
2023-03-07T07:34:45.439Z,8
2023-03-07T07:35:59.768Z,8
2023-03-07T07:37:13.698Z,8
2023-03-07T07:39:42.006Z,8
2023-03-07T07:40:56.107Z,8
2023-03-07T07:42:10.217Z,8
2023-03-07T07:44:38.499Z,8
2023-03-07T07:45:52.699Z,8
2023-03-07T07:47:06.796Z,8
2023-03-07T07:48:20.892Z,8
2023-03-07T07:50:49.161Z,8
2023-03-07T07:52:03.286Z,8
2023-03-07T07:53:17.434Z,7
2023-03-07T07:55:45.717Z,7
2023-03-07T07:56:59.852Z,8
2023-03-07T07:58:13.982Z,8
2023-03-07T08:00:42.232Z,8
2023-03-07T08:01:56.356Z,8
2023-03-07T08:03:10.532Z,8
2023-03-07T08:05:38.874Z,8
2023-03-07T08:06:52.885Z,8
2023-03-07T08:08:07.038Z,8
2023-03-07T08:09:21.141Z,9
2023-03-07T08:11:49.491Z,8
2023-03-07T08:13:03.554Z,9
2023-03-07T08:14:17.720Z,8
2023-03-07T08:16:45.974Z,8
2023-03-07T08:18:00.193Z,8
2023-03-07T08:19:14.209Z,8
2023-03-07T08:21:42.480Z,9
2023-03-07T08:22:56.620Z,8
2023-03-07T08:24:10.736Z,8
2023-03-07T08:25:24.908Z,8
2023-03-07T08:27:53.294Z,8
2023-03-07T08:29:07.368Z,8
2023-03-07T08:30:21.404Z,8
2023-03-07T08:32:49.778Z,8
2023-03-07T08:34:03.822Z,8
2023-03-07T08:35:17.947Z,8
2023-03-07T08:37:46.231Z,8
2023-03-07T08:39:00.379Z,8
2023-03-07T08:40:14.504Z,8
2023-03-07T08:42:42.838Z,8
2023-03-07T08:43:56.916Z,8
2023-03-07T08:45:11.006Z,8
2023-03-07T08:46:25.203Z,9
2023-03-07T08:48:53.462Z,8
2023-03-07T08:50:07.619Z,8
2023-03-07T08:51:21.676Z,8
2023-03-07T08:53:50.063Z,8
2023-03-07T08:55:04.071Z,8
2023-03-07T08:56:18.287Z,9
2023-03-07T08:58:46.685Z,9
2023-03-07T09:00:00.608Z,8
2023-03-07T09:01:14.835Z,8
2023-03-07T09:03:43.037Z,8
2023-03-07T09:04:57.245Z,9
2023-03-07T09:06:11.263Z,8
2023-03-07T09:08:39.540Z,8
2023-03-07T09:09:53.698Z,7
2023-03-07T09:11:07.854Z,8
2023-03-07T09:12:21.921Z,8
2023-03-07T09:14:50.242Z,8
2023-03-07T09:16:04.446Z,7
2023-03-07T09:17:18.538Z,7
2023-03-07T09:18:32.618Z,8
2023-03-07T09:19:46.808Z,8
2023-03-07T09:21:00.830Z,7
2023-03-07T09:22:14.993Z,7
2023-03-07T09:24:43.275Z,8
2023-03-07T09:25:57.403Z,7
2023-03-07T09:27:11.504Z,7
2023-03-07T09:29:39.812Z,7
2023-03-07T09:30:53.922Z,7
2023-03-07T09:32:08.192Z,7
2023-03-07T09:33:22.170Z,7
2023-03-07T09:35:50.467Z,8
2023-03-07T09:37:04.617Z,7
2023-03-07T09:38:18.739Z,6
2023-03-07T09:40:47.050Z,6
2023-03-07T09:42:01.097Z,6
2023-03-07T09:43:15.256Z,6
2023-03-07T09:45:43.547Z,7
2023-03-07T09:46:57.647Z,6
2023-03-07T09:48:11.815Z,6
2023-03-07T09:49:25.910Z,6
2023-03-07T09:50:40.060Z,6
2023-03-07T09:51:54.179Z,6
2023-03-07T09:53:08.325Z,6
2023-03-07T09:54:22.441Z,6
2023-03-07T09:56:50.681Z,7
2023-03-07T09:58:04.876Z,7
2023-03-07T09:59:23.029Z,6
2023-03-07T10:01:47.275Z,6
2023-03-07T10:03:01.360Z,7
2023-03-07T10:04:15.651Z,6
2023-03-07T10:06:43.778Z,6
2023-03-07T10:07:57.927Z,6
2023-03-07T10:09:12.059Z,6
2023-03-07T10:11:40.278Z,6
2023-03-07T10:12:54.512Z,5
2023-03-07T10:14:08.578Z,6
2023-03-07T10:15:22.706Z,5
2023-03-07T10:17:50.979Z,6
2023-03-07T10:19:05.225Z,6
2023-03-07T10:20:19.440Z,6
2023-03-07T10:22:47.514Z,7
2023-03-07T10:24:01.650Z,5
2023-03-07T10:25:15.808Z,6
2023-03-07T10:27:44.045Z,5
2023-03-07T10:28:58.209Z,5
2023-03-07T10:30:12.349Z,7
2023-03-07T10:32:40.611Z,5
2023-03-07T10:33:54.961Z,5
2023-03-07T10:35:08.882Z,5
2023-03-07T10:36:23.025Z,6
2023-03-07T10:38:51.206Z,5
2023-03-07T10:40:05.486Z,5
2023-03-07T10:41:19.576Z,5
2023-03-07T10:43:47.782Z,6
2023-03-07T10:45:01.906Z,5
2023-03-07T10:46:25.379Z,6
2023-03-07T10:48:44.325Z,5
2023-03-07T10:49:58.460Z,5
2023-03-07T10:51:12.555Z,6
2023-03-07T10:53:40.847Z,6
2023-03-07T10:54:55.028Z,5
2023-03-07T10:56:09.086Z,5
2023-03-07T10:57:23.217Z,5
2023-03-07T10:59:51.521Z,5
2023-03-07T11:01:05.627Z,5
2023-03-07T11:02:19.811Z,5
2023-03-07T11:04:48.174Z,5
2023-03-07T11:06:02.218Z,5
2023-03-07T11:07:16.316Z,6
2023-03-07T11:09:44.647Z,6
2023-03-07T11:10:58.765Z,5
2023-03-07T11:12:12.814Z,5
2023-03-07T11:14:41.162Z,5
2023-03-07T11:16:09.511Z,5
2023-03-07T11:17:09.382Z,5
2023-03-07T11:18:23.471Z,5
2023-03-07T11:20:51.725Z,5
2023-03-07T11:22:05.879Z,5
2023-03-07T11:23:20.051Z,5
2023-03-07T11:25:48.338Z,5
2023-03-07T11:27:02.432Z,5
2023-03-07T11:28:16.598Z,5
2023-03-07T11:30:44.892Z,5
2023-03-07T11:31:59.010Z,5
2023-03-07T11:33:13.093Z,6
2023-03-07T11:35:49.710Z,5
2023-03-07T11:37:03.658Z,5
2023-03-07T11:38:17.894Z,5
2023-03-07T11:40:46.096Z,5
2023-03-07T11:42:00.193Z,6
2023-03-07T11:43:14.326Z,6
2023-03-07T11:45:42.608Z,5
2023-03-07T11:46:56.714Z,5
2023-03-07T11:48:10.838Z,5
2023-03-07T11:49:25.030Z,6
2023-03-07T11:51:53.254Z,5
2023-03-07T11:53:07.429Z,5
2023-03-07T11:54:21.507Z,6
2023-03-07T11:56:49.918Z,5
2023-03-07T11:58:03.962Z,5
2023-03-07T11:59:18.053Z,6
2023-03-07T12:01:46.335Z,7
2023-03-07T12:03:00.458Z,6
2023-03-07T12:04:14.586Z,6
2023-03-07T12:06:42.850Z,6
2023-03-07T12:07:57.011Z,7
2023-03-07T12:09:11.134Z,6
2023-03-07T12:11:39.416Z,7
2023-03-07T12:12:53.635Z,6
2023-03-07T12:14:07.714Z,6
2023-03-07T12:15:21.835Z,5
2023-03-07T12:17:50.107Z,6
2023-03-07T12:19:04.178Z,6
2023-03-07T12:20:18.327Z,5
2023-03-07T12:22:46.663Z,6
2023-03-07T12:24:00.713Z,6
2023-03-07T12:25:14.965Z,6
2023-03-07T12:27:43.126Z,6
2023-03-07T12:28:57.331Z,6
2023-03-07T12:30:11.371Z,6
2023-03-07T12:32:39.894Z,5
2023-03-07T12:33:53.794Z,6
2023-03-07T12:35:08.031Z,6
2023-03-07T12:36:22.114Z,5
2023-03-07T12:38:50.327Z,6
2023-03-07T12:40:04.535Z,6
2023-03-07T12:41:18.626Z,6
2023-03-07T12:43:46.855Z,5
2023-03-07T12:45:01.044Z,8
2023-03-07T12:46:15.187Z,6
2023-03-07T12:48:43.402Z,5
2023-03-07T12:49:57.512Z,5
2023-03-07T12:51:11.649Z,6
2023-03-07T12:53:39.924Z,6
2023-03-07T12:54:54.050Z,6
2023-03-07T12:56:08.250Z,6
2023-03-07T12:57:22.337Z,6
2023-03-07T12:59:50.560Z,6
2023-03-07T13:01:04.810Z,6
2023-03-07T13:02:18.942Z,6
2023-03-07T13:04:47.195Z,6
2023-03-07T13:06:01.269Z,5
2023-03-07T13:07:15.488Z,6
2023-03-07T13:09:43.626Z,6
2023-03-07T13:10:57.778Z,6
2023-03-07T13:12:11.911Z,6
2023-03-07T13:14:40.191Z,6
2023-03-07T13:15:54.750Z,6
2023-03-07T13:17:08.579Z,6
2023-03-07T13:18:22.551Z,6
2023-03-07T13:20:50.886Z,7
2023-03-07T13:22:04.968Z,6
2023-03-07T13:23:19.238Z,6
2023-03-07T13:25:47.471Z,7
2023-03-07T13:27:01.483Z,6
2023-03-07T13:28:15.629Z,6
2023-03-07T13:30:43.916Z,7
2023-03-07T13:31:58.018Z,7
2023-03-07T13:33:12.181Z,6
2023-03-07T13:35:40.428Z,7
2023-03-07T13:36:54.608Z,7
2023-03-07T13:38:08.687Z,7
2023-03-07T13:39:22.842Z,7
2023-03-07T13:41:51.159Z,6
2023-03-07T13:43:05.284Z,7
2023-03-07T13:44:19.346Z,7
2023-03-07T13:46:47.651Z,7
2023-03-07T13:48:01.756Z,7
2023-03-07T13:49:16.008Z,7
2023-03-07T13:51:44.172Z,7
2023-03-07T13:52:58.306Z,7
2023-03-07T13:54:12.414Z,7
2023-03-07T13:56:40.682Z,7
2023-03-07T13:57:55.846Z,8
2023-03-07T13:59:09.148Z,8
2023-03-07T14:00:23.139Z,8
2023-03-07T14:02:51.341Z,10
2023-03-07T14:04:05.520Z,10
2023-03-07T14:05:19.683Z,10
2023-03-07T14:07:47.953Z,10
2023-03-07T14:09:02.810Z,11
2023-03-07T14:10:22.514Z,12
2023-03-07T14:12:44.427Z,12
2023-03-07T14:13:58.624Z,15
2023-03-07T14:15:12.694Z,13
2023-03-07T14:16:26.817Z,13
2023-03-07T14:17:40.948Z,14
2023-03-07T14:18:55.105Z,14
2023-03-07T14:20:09.325Z,13
2023-03-07T14:21:23.396Z,14
2023-03-07T14:23:51.604Z,16
2023-03-07T14:25:05.783Z,16
2023-03-07T14:26:19.920Z,17
2023-03-07T14:28:48.197Z,16
2023-03-07T14:30:02.280Z,16
2023-03-07T14:31:16.519Z,15
2023-03-07T14:33:44.681Z,15
2023-03-07T14:34:58.904Z,17
2023-03-07T14:36:12.985Z,14
2023-03-07T14:38:41.228Z,15
2023-03-07T14:39:55.415Z,14
2023-03-07T14:41:09.572Z,16
2023-03-07T14:42:23.628Z,13
2023-03-07T14:44:51.889Z,13
2023-03-07T14:46:06.124Z,13
2023-03-07T14:47:20.240Z,13
2023-03-07T14:49:48.521Z,13
2023-03-07T14:51:02.565Z,13
2023-03-07T14:52:29.621Z,13
2023-03-07T14:54:44.959Z,13
2023-03-07T14:55:59.120Z,12
2023-03-07T14:57:13.203Z,11
2023-03-07T14:59:41.442Z,11
2023-03-07T15:00:55.743Z,11
2023-03-07T15:02:09.822Z,12
2023-03-07T15:03:23.881Z,12
2023-03-07T15:05:52.135Z,13
2023-03-07T15:07:06.270Z,12
2023-03-07T15:08:20.389Z,12
2023-03-07T15:10:48.783Z,13
2023-03-07T15:12:02.970Z,12
2023-03-07T15:13:16.953Z,12
2023-03-07T15:15:45.294Z,12
2023-03-07T15:16:59.440Z,12
2023-03-07T15:18:13.460Z,10
2023-03-07T15:20:41.718Z,10
2023-03-07T15:21:55.895Z,10
2023-03-07T15:23:10.016Z,10
2023-03-07T15:24:24.144Z,10
2023-03-07T15:26:52.401Z,10
2023-03-07T15:28:06.592Z,10
2023-03-07T15:29:20.646Z,10
2023-03-07T15:31:49.085Z,11
2023-03-07T15:33:03.061Z,10
2023-03-07T15:34:17.279Z,12
2023-03-07T15:36:45.553Z,12
2023-03-07T15:37:59.721Z,12
2023-03-07T15:39:14.147Z,11
2023-03-07T15:41:42.043Z,11
2023-03-07T15:42:56.233Z,11
2023-03-07T15:44:10.261Z,11
2023-03-07T15:45:24.457Z,12
2023-03-07T15:47:52.663Z,13
2023-03-07T15:49:06.809Z,13
2023-03-07T15:50:20.909Z,13
2023-03-07T15:52:49.259Z,12
2023-03-07T15:54:03.376Z,12
2023-03-07T15:55:17.472Z,13
2023-03-07T15:57:45.839Z,14
2023-03-07T15:58:59.936Z,13
2023-03-07T16:00:13.983Z,13
2023-03-07T16:02:42.394Z,12
2023-03-07T16:03:56.652Z,12
2023-03-07T16:05:10.476Z,12
2023-03-07T16:06:24.744Z,12
2023-03-07T16:08:52.932Z,13
2023-03-07T16:10:07.147Z,13
2023-03-07T16:11:21.156Z,16
2023-03-07T16:13:49.487Z,30
2023-03-07T16:15:03.599Z,30
2023-03-07T16:16:17.774Z,26
2023-03-07T16:18:46.050Z,24
2023-03-07T16:20:00.457Z,22
2023-03-07T16:21:14.424Z,21
2023-03-07T16:23:42.533Z,28
2023-03-07T16:24:56.700Z,26
2023-03-07T16:26:10.778Z,26
2023-03-07T16:27:24.999Z,26
2023-03-07T16:29:53.235Z,33
2023-03-07T16:31:07.311Z,29
2023-03-07T16:32:21.453Z,23
2023-03-07T16:34:49.846Z,19
2023-03-07T16:36:03.871Z,22
2023-03-07T16:37:17.967Z,29
2023-03-07T16:39:46.291Z,21
2023-03-07T16:41:00.353Z,21
2023-03-07T16:42:14.531Z,21
2023-03-07T16:44:42.774Z,34
2023-03-07T16:45:56.946Z,38
2023-03-07T16:47:11.008Z,26
2023-03-07T16:49:39.317Z,16
2023-03-07T16:50:53.457Z,16
2023-03-07T16:52:07.572Z,32
2023-03-07T16:53:21.691Z,32
2023-03-07T16:55:50.050Z,18
2023-03-07T16:57:04.095Z,20
2023-03-07T16:58:18.311Z,33
2023-03-07T17:00:46.650Z,23
2023-03-07T17:02:00.635Z,35
2023-03-07T17:03:14.767Z,29
2023-03-07T17:05:43.013Z,28
2023-03-07T17:07:04.414Z,22
2023-03-07T17:08:11.266Z,26
2023-03-07T17:10:39.592Z,30
2023-03-07T17:11:53.747Z,26
2023-03-07T17:13:07.942Z,26
2023-03-07T17:14:21.993Z,32
2023-03-07T17:16:50.182Z,41
2023-03-07T17:18:04.438Z,41
2023-03-07T17:19:18.482Z,32
2023-03-07T17:21:46.834Z,29
2023-03-07T17:23:00.975Z,42
2023-03-07T17:24:15.111Z,42
2023-03-07T17:26:43.273Z,26
2023-03-07T17:27:57.445Z,26
2023-03-07T17:29:11.546Z,19
2023-03-07T17:31:39.819Z,29
2023-03-07T17:32:53.962Z,29
2023-03-07T17:34:08.105Z,30
2023-03-07T17:35:22.229Z,23
2023-03-07T17:37:50.454Z,34
2023-03-07T17:39:04.662Z,28
2023-03-07T17:40:18.816Z,24
2023-03-07T17:42:47.067Z,48
2023-03-07T17:44:01.125Z,33
2023-03-07T17:45:15.380Z,33
2023-03-07T17:47:43.526Z,28
2023-03-07T17:48:57.681Z,30
2023-03-07T17:50:11.896Z,28
2023-03-07T17:52:40.117Z,51
2023-03-07T17:53:54.311Z,51
2023-03-07T17:55:09.526Z,44
2023-03-07T17:56:22.481Z,44
2023-03-07T17:58:50.710Z,44
2023-03-07T18:00:04.944Z,43
2023-03-07T18:01:19.092Z,37
2023-03-07T18:03:47.311Z,50
2023-03-07T18:05:01.390Z,47
2023-03-07T18:06:15.614Z,46
2023-03-07T18:08:43.795Z,51
2023-03-07T18:10:07.549Z,47
2023-03-07T18:11:12.049Z,47
2023-03-07T18:13:40.308Z,53
2023-03-07T18:14:54.524Z,50
2023-03-07T18:16:08.649Z,41
2023-03-07T18:17:22.721Z,55
2023-03-07T18:19:50.980Z,39
2023-03-07T18:21:05.121Z,50
2023-03-07T18:22:19.313Z,50
2023-03-07T18:24:47.562Z,45
2023-03-07T18:26:01.651Z,34
2023-03-07T18:27:15.776Z,40
2023-03-07T18:29:44.084Z,33
2023-03-07T18:30:58.231Z,33
2023-03-07T18:32:12.361Z,46
2023-03-07T18:34:40.570Z,42
2023-03-07T18:35:54.828Z,40
2023-03-07T18:37:08.907Z,47
2023-03-07T18:38:23.017Z,42
2023-03-07T18:40:51.241Z,46
2023-03-07T18:42:05.484Z,46
2023-03-07T18:43:19.642Z,46
2023-03-07T18:45:47.959Z,49
2023-03-07T18:47:01.961Z,54
2023-03-07T18:48:16.056Z,48
2023-03-07T18:50:44.361Z,68
2023-03-07T18:51:58.459Z,57
2023-03-07T18:53:12.603Z,57
2023-03-07T18:55:40.853Z,57
2023-03-07T18:56:55.013Z,36
2023-03-07T18:58:09.153Z,36
2023-03-07T18:59:23.541Z,53
2023-03-07T19:01:51.556Z,61
2023-03-07T19:03:05.700Z,45
2023-03-07T19:04:19.778Z,43
2023-03-07T19:06:48.143Z,49
2023-03-07T19:08:02.190Z,59
2023-03-07T19:09:16.306Z,34
2023-03-07T19:11:44.675Z,49
2023-03-07T19:12:58.706Z,53
2023-03-07T19:14:12.842Z,33
2023-03-07T19:16:41.192Z,60
2023-03-07T19:17:55.271Z,36
2023-03-07T19:19:09.374Z,49
2023-03-07T19:20:23.521Z,49
2023-03-07T19:22:51.784Z,54
2023-03-07T19:24:05.953Z,64
2023-03-07T19:25:20.105Z,64
2023-03-07T19:27:48.298Z,55
2023-03-07T19:29:02.449Z,54
2023-03-07T19:30:16.600Z,55
2023-03-07T19:32:45.039Z,48
2023-03-07T19:33:59.001Z,48
2023-03-07T19:35:13.099Z,50
2023-03-07T19:37:41.331Z,51
2023-03-07T19:38:55.613Z,61
2023-03-07T19:40:09.633Z,47
2023-03-07T19:41:23.767Z,64
2023-03-07T19:43:52.060Z,62
2023-03-07T19:45:06.227Z,61
2023-03-07T19:46:20.389Z,56
2023-03-07T19:48:48.595Z,50
2023-03-07T19:50:02.712Z,68
2023-03-07T19:51:16.816Z,64
2023-03-07T19:53:45.087Z,68
2023-03-07T19:54:59.318Z,75
2023-03-07T19:56:13.346Z,62
2023-03-07T19:58:41.630Z,53
2023-03-07T19:59:55.853Z,57
2023-03-07T20:01:10.034Z,57
2023-03-07T20:02:24.033Z,61
2023-03-07T20:04:52.293Z,68
2023-03-07T20:06:06.524Z,72
2023-03-07T20:07:20.535Z,65
2023-03-07T20:09:48.848Z,63
2023-03-07T20:11:09.513Z,84
2023-03-07T20:12:17.079Z,78
2023-03-07T20:14:45.441Z,88
2023-03-07T20:15:59.589Z,75
2023-03-07T20:17:13.624Z,86
2023-03-07T20:19:41.856Z,76
2023-03-07T20:20:56.105Z,75
2023-03-07T20:22:10.185Z,90
2023-03-07T20:23:24.357Z,79
2023-03-07T20:25:52.529Z,88
2023-03-07T20:27:06.684Z,85
2023-03-07T20:28:20.786Z,88
2023-03-07T20:30:49.245Z,94
2023-03-07T20:32:03.253Z,91
2023-03-07T20:33:17.789Z,102
2023-03-07T20:35:45.645Z,63
2023-03-07T20:36:59.722Z,54
2023-03-07T20:38:13.865Z,51
2023-03-07T20:40:42.138Z,40
2023-03-07T20:41:56.336Z,33
2023-03-07T20:43:10.372Z,33
2023-03-07T20:44:24.598Z,39
2023-03-07T20:46:52.825Z,35
2023-03-07T20:48:06.962Z,34
2023-03-07T20:49:21.047Z,31
2023-03-07T20:51:49.333Z,26
2023-03-07T20:53:03.471Z,25
2023-03-07T20:54:17.605Z,25
2023-03-07T20:56:45.848Z,27
2023-03-07T20:58:00.008Z,27
2023-03-07T20:59:14.154Z,25
2023-03-07T21:01:42.507Z,27
2023-03-07T21:03:05.383Z,26
2023-03-07T21:04:10.657Z,28
2023-03-07T21:05:24.777Z,27
2023-03-07T21:07:53.064Z,25
2023-03-07T21:09:07.241Z,28
2023-03-07T21:10:22.918Z,26
2023-03-07T21:12:49.648Z,27
2023-03-07T21:14:03.749Z,29
2023-03-07T21:15:17.920Z,30
2023-03-07T21:17:46.173Z,32
2023-03-07T21:19:01.505Z,29
2023-03-07T21:20:14.493Z,31
2023-03-07T21:22:42.662Z,30
2023-03-07T21:23:56.833Z,29
2023-03-07T21:25:10.886Z,29
2023-03-07T21:27:39.242Z,28
2023-03-07T21:28:53.316Z,31
2023-03-07T21:30:07.455Z,29
2023-03-07T21:31:21.616Z,28
2023-03-07T21:33:49.906Z,28
2023-03-07T21:35:04.004Z,29
2023-03-07T21:36:18.151Z,27
2023-03-07T21:38:46.379Z,29
2023-03-07T21:40:00.629Z,27
2023-03-07T21:41:14.662Z,29
2023-03-07T21:43:42.917Z,26
2023-03-07T21:44:57.062Z,29
2023-03-07T21:46:11.230Z,29
2023-03-07T21:47:25.313Z,30
2023-03-07T21:49:53.574Z,35
2023-03-07T21:51:07.735Z,35
2023-03-07T21:52:21.806Z,34
2023-03-07T21:54:50.125Z,25
2023-03-07T21:56:04.276Z,30
2023-03-07T21:57:18.394Z,30
2023-03-07T21:58:32.507Z,21
2023-03-07T21:59:46.648Z,22
2023-03-07T22:01:00.868Z,25
2023-03-07T22:02:14.896Z,24
2023-03-07T22:04:43.186Z,25
2023-03-07T22:05:57.614Z,26
2023-03-07T22:07:11.440Z,29
2023-03-07T22:09:39.700Z,27
2023-03-07T22:10:53.845Z,28
2023-03-07T22:12:07.967Z,27
2023-03-07T22:13:22.194Z,29
2023-03-07T22:15:50.349Z,28
2023-03-07T22:17:04.612Z,26
2023-03-07T22:18:18.652Z,30
2023-03-07T22:20:46.891Z,39
2023-03-07T22:22:01.101Z,38
2023-03-07T22:23:15.179Z,30
2023-03-07T22:25:43.480Z,23
2023-03-07T22:26:57.549Z,23
2023-03-07T22:28:11.704Z,32
2023-03-07T22:30:40.021Z,26
2023-03-07T22:31:54.154Z,32
2023-03-07T22:33:08.228Z,25
2023-03-07T22:34:22.352Z,29
2023-03-07T22:36:50.587Z,26
2023-03-07T22:38:04.762Z,24
2023-03-07T22:39:19.135Z,23
2023-03-07T22:41:47.145Z,19
2023-03-07T22:43:01.301Z,24
2023-03-07T22:44:15.416Z,21
2023-03-07T22:46:43.684Z,24
2023-03-07T22:47:57.835Z,31
2023-03-07T22:49:11.951Z,31
2023-03-07T22:51:40.225Z,23
2023-03-07T22:52:54.430Z,26
2023-03-07T22:54:08.525Z,22
2023-03-07T22:55:22.629Z,23
2023-03-07T22:57:50.869Z,24
2023-03-07T22:59:05.035Z,22
2023-03-07T23:00:19.211Z,23
2023-03-07T23:02:47.485Z,23
2023-03-07T23:04:01.538Z,22
2023-03-07T23:05:15.681Z,22
2023-03-07T23:07:43.948Z,20
2023-03-07T23:08:58.171Z,22
2023-03-07T23:10:12.220Z,19
2023-03-07T23:12:40.436Z,19
2023-03-07T23:13:54.626Z,21
2023-03-07T23:15:08.777Z,20
2023-03-07T23:16:22.892Z,18